sensor_id;sensor_type;location;lat;lon;timestamp;pressure;altitude;pressure_sealevel;temperature;humidity
27958;BME280;15295;42.658;23.374;2023-02-03T00:01:47;94765.44;;;7.61;46.30
27958;BME280;15295;42.658;23.374;2023-02-03T00:04:15;94781.84;;;7.68;46.55
27958;BME280;15295;42.658;23.374;2023-02-03T00:06:41;94767.59;;;7.45;46.94
27958;BME280;15295;42.658;23.374;2023-02-03T00:09:06;94768.50;;;7.56;46.96
27958;BME280;15295;42.658;23.374;2023-02-03T00:11:34;94741.84;;;7.32;47.27
27958;BME280;15295;42.658;23.374;2023-02-03T00:13:59;94750.41;;;7.34;47.48
27958;BME280;15295;42.658;23.374;2023-02-03T00:16:25;94780.09;;;7.50;48.08
27958;BME280;15295;42.658;23.374;2023-02-03T00:18:50;94785.91;;;7.48;47.93
27958;BME280;15295;42.658;23.374;2023-02-03T00:21:16;94786.66;;;7.49;48.12
27958;BME280;15295;42.658;23.374;2023-02-03T00:23:43;94774.53;;;7.39;48.38
27958;BME280;15295;42.658;23.374;2023-02-03T00:26:11;94793.22;;;7.44;48.66
27958;BME280;15295;42.658;23.374;2023-02-03T00:28:39;94757.28;;;7.25;48.94
27958;BME280;15295;42.658;23.374;2023-02-03T00:31:16;94761.75;;;7.10;49.24
27958;BME280;15295;42.658;23.374;2023-02-03T00:33:44;94760.94;;;7.06;49.37
27958;BME280;15295;42.658;23.374;2023-02-03T00:36:12;94793.44;;;7.29;49.57
27958;BME280;15295;42.658;23.374;2023-02-03T00:38:47;94763.66;;;7.06;49.67
27958;BME280;15295;42.658;23.374;2023-02-03T00:41:16;94818.28;;;7.27;50.17
27958;BME280;15295;42.658;23.374;2023-02-03T00:43:45;94781.03;;;6.98;50.18
27958;BME280;15295;42.658;23.374;2023-02-03T00:46:20;94776.41;;;7.02;50.64
27958;BME280;15295;42.658;23.374;2023-02-03T00:48:50;94776.75;;;6.97;50.77
27958;BME280;15295;42.658;23.374;2023-02-03T00:51:16;94793.47;;;6.99;50.84
27958;BME280;15295;42.658;23.374;2023-02-03T00:53:42;94827.91;;;7.21;51.00
27958;BME280;15295;42.658;23.374;2023-02-03T00:56:08;94785.66;;;6.94;51.16
27958;BME280;15295;42.658;23.374;2023-02-03T00:58:40;94790.41;;;7.04;51.33
27958;BME280;15295;42.658;23.374;2023-02-03T01:01:05;94811.97;;;7.20;51.19
27958;BME280;15295;42.658;23.374;2023-02-03T01:03:31;94793.22;;;7.11;51.24
27958;BME280;15295;42.658;23.374;2023-02-03T01:06:13;94824.63;;;7.38;51.29
27958;BME280;15295;42.658;23.374;2023-02-03T01:08:41;94820.66;;;7.32;51.01
27958;BME280;15295;42.658;23.374;2023-02-03T01:11:12;94808.81;;;7.14;51.02
27958;BME280;15295;42.658;23.374;2023-02-03T01:13:39;94808.03;;;7.14;51.32
27958;BME280;15295;42.658;23.374;2023-02-03T01:16:11;94780.59;;;6.92;51.64
27958;BME280;15295;42.658;23.374;2023-02-03T01:18:39;94803.28;;;7.07;51.80
27958;BME280;15295;42.658;23.374;2023-02-03T01:21:08;94827.84;;;7.14;52.13
27958;BME280;15295;42.658;23.374;2023-02-03T01:23:35;94809.78;;;6.99;52.03
27958;BME280;15295;42.658;23.374;2023-02-03T01:26:09;94801.22;;;6.97;52.33
27958;BME280;15295;42.658;23.374;2023-02-03T01:28:37;94831.72;;;7.17;52.33
27958;BME280;15295;42.658;23.374;2023-02-03T01:31:17;94784.47;;;6.95;52.23
27958;BME280;15295;42.658;23.374;2023-02-03T01:33:44;94787.47;;;6.86;51.76
27958;BME280;15295;42.658;23.374;2023-02-03T01:36:14;94790.94;;;6.83;51.89
27958;BME280;15295;42.658;23.374;2023-02-03T01:38:41;94823.00;;;7.00;51.65
27958;BME280;15295;42.658;23.374;2023-02-03T01:41:11;94815.94;;;6.96;51.19
27958;BME280;15295;42.658;23.374;2023-02-03T01:43:57;94841.59;;;6.98;51.00
27958;BME280;15295;42.658;23.374;2023-02-03T01:46:30;94839.94;;;6.90;50.96
27958;BME280;15295;42.658;23.374;2023-02-03T01:49:12;94830.88;;;6.83;50.92
27958;BME280;15295;42.658;23.374;2023-02-03T01:51:41;94850.31;;;6.85;50.93
27958;BME280;15295;42.658;23.374;2023-02-03T01:54:14;94841.88;;;6.90;50.96
27958;BME280;15295;42.658;23.374;2023-02-03T01:56:44;94835.91;;;6.81;50.92
27958;BME280;15295;42.658;23.374;2023-02-03T01:59:16;94841.59;;;6.72;51.07
27958;BME280;15295;42.658;23.374;2023-02-03T02:01:45;94813.44;;;6.54;51.09
27958;BME280;15295;42.658;23.374;2023-02-03T02:04:17;94813.69;;;6.46;51.15
27958;BME280;15295;42.658;23.374;2023-02-03T02:07:04;94801.97;;;6.42;51.26
27958;BME280;15295;42.658;23.374;2023-02-03T02:09:30;94852.88;;;6.74;51.12
27958;BME280;15295;42.658;23.374;2023-02-03T02:11:56;94809.53;;;6.55;50.96
27958;BME280;15295;42.658;23.374;2023-02-03T02:14:24;94819.69;;;6.58;50.87
27958;BME280;15295;42.658;23.374;2023-02-03T02:17:03;94815.25;;;6.47;50.74
27958;BME280;15295;42.658;23.374;2023-02-03T02:31:46;94839.25;;;6.45;50.88
27958;BME280;15295;42.658;23.374;2023-02-03T02:39:44;94835.53;;;6.30;50.73
27958;BME280;15295;42.658;23.374;2023-02-03T02:45:26;94854.41;;;6.46;50.72
27958;BME280;15295;42.658;23.374;2023-02-03T02:47:55;94830.56;;;6.36;50.74
27958;BME280;15295;42.658;23.374;2023-02-03T02:50:27;94839.25;;;6.45;50.78
27958;BME280;15295;42.658;23.374;2023-02-03T02:52:59;94821.97;;;6.30;50.61
27958;BME280;15295;42.658;23.374;2023-02-03T02:55:30;94830.94;;;6.34;50.53
27958;BME280;15295;42.658;23.374;2023-02-03T02:58:00;94830.03;;;6.27;50.36
27958;BME280;15295;42.658;23.374;2023-02-03T03:00:34;94847.34;;;6.41;50.40
27958;BME280;15295;42.658;23.374;2023-02-03T03:03:12;94825.81;;;6.29;50.03
27958;BME280;15295;42.658;23.374;2023-02-03T03:05:43;94821.06;;;6.22;50.07
27958;BME280;15295;42.658;23.374;2023-02-03T03:08:12;94867.91;;;6.42;49.96
27958;BME280;15295;42.658;23.374;2023-02-03T03:10:40;94828.69;;;6.13;50.00
27958;BME280;15295;42.658;23.374;2023-02-03T03:13:11;94835.19;;;6.09;49.96
27958;BME280;15295;42.658;23.374;2023-02-03T03:15:39;94828.50;;;6.03;49.88
27958;BME280;15295;42.658;23.374;2023-02-03T03:18:21;94868.91;;;6.31;49.75
27958;BME280;15295;42.658;23.374;2023-02-03T03:20:54;94854.22;;;6.12;49.67
27958;BME280;15295;42.658;23.374;2023-02-03T03:23:33;94880.88;;;6.30;49.27
27958;BME280;15295;42.658;23.374;2023-02-03T03:29:21;94838.47;;;5.99;49.12
27958;BME280;15295;42.658;23.374;2023-02-03T03:31:49;94858.53;;;6.13;48.76
27958;BME280;15295;42.658;23.374;2023-02-03T03:34:17;94870.41;;;6.28;48.57
27958;BME280;15295;42.658;23.374;2023-02-03T03:36:53;94847.13;;;6.04;48.34
27958;BME280;15295;42.658;23.374;2023-02-03T03:39:37;94894.88;;;6.32;48.21
27958;BME280;15295;42.658;23.374;2023-02-03T03:50:33;94875.09;;;6.08;48.14
27958;BME280;15295;42.658;23.374;2023-02-03T03:53:04;94871.72;;;6.15;47.94
27958;BME280;15295;42.658;23.374;2023-02-03T03:55:37;94875.94;;;6.12;47.89
27958;BME280;15295;42.658;23.374;2023-02-03T03:58:13;94878.41;;;6.21;47.67
27958;BME280;15295;42.658;23.374;2023-02-03T04:00:42;94871.34;;;6.16;47.93
27958;BME280;15295;42.658;23.374;2023-02-03T04:03:23;94893.91;;;6.20;47.86
27958;BME280;15295;42.658;23.374;2023-02-03T04:05:51;94918.28;;;6.40;47.77
27958;BME280;15295;42.658;23.374;2023-02-03T04:08:21;94935.53;;;6.51;47.77
27958;BME280;15295;42.658;23.374;2023-02-03T04:10:48;94892.16;;;6.32;47.98
27958;BME280;15295;42.658;23.374;2023-02-03T04:13:13;94909.03;;;6.44;47.56
27958;BME280;15295;42.658;23.374;2023-02-03T04:15:42;94893.00;;;6.36;47.84
27958;BME280;15295;42.658;23.374;2023-02-03T04:18:11;94895.72;;;6.36;47.81
27958;BME280;15295;42.658;23.374;2023-02-03T04:20:43;94941.50;;;6.60;47.69
27958;BME280;15295;42.658;23.374;2023-02-03T04:23:11;94905.13;;;6.42;47.78
27958;BME280;15295;42.658;23.374;2023-02-03T04:25:41;94947.06;;;6.67;47.75
27958;BME280;15295;42.658;23.374;2023-02-03T04:28:07;94964.25;;;6.74;47.89
27958;BME280;15295;42.658;23.374;2023-02-03T04:30:32;94931.69;;;6.52;47.64
27958;BME280;15295;42.658;23.374;2023-02-03T04:32:58;94971.69;;;6.77;47.72
27958;BME280;15295;42.658;23.374;2023-02-03T04:35:24;94971.69;;;6.77;47.86
27958;BME280;15295;42.658;23.374;2023-02-03T04:37:51;94975.09;;;6.74;47.73
27958;BME280;15295;42.658;23.374;2023-02-03T04:40:17;94977.03;;;6.74;47.66
27958;BME280;15295;42.658;23.374;2023-02-03T04:42:45;94947.97;;;6.52;47.68
27958;BME280;15295;42.658;23.374;2023-02-03T04:45:11;94983.50;;;6.66;47.92
27958;BME280;15295;42.658;23.374;2023-02-03T04:47:37;94943.53;;;6.44;48.00
27958;BME280;15295;42.658;23.374;2023-02-03T04:50:05;94957.56;;;6.46;48.00
27958;BME280;15295;42.658;23.374;2023-02-03T04:52:41;94943.72;;;6.32;48.17
27958;BME280;15295;42.658;23.374;2023-02-03T04:55:08;94971.13;;;6.46;48.18
27958;BME280;15295;42.658;23.374;2023-02-03T04:57:34;94947.72;;;6.38;48.13
27958;BME280;15295;42.658;23.374;2023-02-03T05:00:00;94992.31;;;6.59;48.32
27958;BME280;15295;42.658;23.374;2023-02-03T05:02:27;94976.19;;;6.47;48.18
27958;BME280;15295;42.658;23.374;2023-02-03T05:04:53;94962.44;;;6.37;48.24
27958;BME280;15295;42.658;23.374;2023-02-03T05:07:19;94968.28;;;6.39;48.20
27958;BME280;15295;42.658;23.374;2023-02-03T05:09:45;94995.38;;;6.58;47.89
27958;BME280;15295;42.658;23.374;2023-02-03T05:12:13;94967.91;;;6.40;48.04
27958;BME280;15295;42.658;23.374;2023-02-03T05:14:41;94983.97;;;6.49;47.98
27958;BME280;15295;42.658;23.374;2023-02-03T05:17:08;95009.38;;;6.60;47.87
27958;BME280;15295;42.658;23.374;2023-02-03T05:19:34;95016.81;;;6.63;47.95
27958;BME280;15295;42.658;23.374;2023-02-03T05:22:01;94982.50;;;6.32;47.90
27958;BME280;15295;42.658;23.374;2023-02-03T05:24:26;95007.75;;;6.55;47.89
27958;BME280;15295;42.658;23.374;2023-02-03T05:27:13;95023.09;;;6.67;47.96
27958;BME280;15295;42.658;23.374;2023-02-03T05:29:39;95002.13;;;6.45;47.98
27958;BME280;15295;42.658;23.374;2023-02-03T05:32:04;95027.22;;;6.61;48.01
27958;BME280;15295;42.658;23.374;2023-02-03T05:34:31;94986.78;;;6.33;48.25
27958;BME280;15295;42.658;23.374;2023-02-03T05:36:57;94982.22;;;6.37;48.06
27958;BME280;15295;42.658;23.374;2023-02-03T05:39:24;95025.69;;;6.60;48.02
27958;BME280;15295;42.658;23.374;2023-02-03T05:41:50;95023.38;;;6.62;47.93
27958;BME280;15295;42.658;23.374;2023-02-03T05:44:19;95020.97;;;6.57;48.14
27958;BME280;15295;42.658;23.374;2023-02-03T05:46:48;94983.97;;;6.26;48.14
27958;BME280;15295;42.658;23.374;2023-02-03T05:49:14;94992.44;;;6.24;48.09
27958;BME280;15295;42.658;23.374;2023-02-03T05:51:41;95023.72;;;6.38;48.33
27958;BME280;15295;42.658;23.374;2023-02-03T05:54:08;95013.09;;;6.29;48.28
27958;BME280;15295;42.658;23.374;2023-02-03T05:56:34;95018.16;;;6.31;48.20
27958;BME280;15295;42.658;23.374;2023-02-03T05:59:02;95014.72;;;6.34;48.09
27958;BME280;15295;42.658;23.374;2023-02-03T06:01:31;95036.22;;;6.42;48.38
27958;BME280;15295;42.658;23.374;2023-02-03T06:03:58;94986.75;;;6.10;48.32
27958;BME280;15295;42.658;23.374;2023-02-03T06:06:23;95015.59;;;6.18;48.53
27958;BME280;15295;42.658;23.374;2023-02-03T06:08:49;95016.31;;;6.15;48.50
27958;BME280;15295;42.658;23.374;2023-02-03T06:11:21;95005.59;;;6.03;48.41
27958;BME280;15295;42.658;23.374;2023-02-03T06:13:50;94995.81;;;5.99;48.26
27958;BME280;15295;42.658;23.374;2023-02-03T06:16:15;95037.81;;;6.24;48.55
27958;BME280;15295;42.658;23.374;2023-02-03T06:18:41;94996.97;;;5.98;48.55
27958;BME280;15295;42.658;23.374;2023-02-03T06:21:09;95016.13;;;6.05;48.48
27958;BME280;15295;42.658;23.374;2023-02-03T06:23:34;95014.16;;;6.05;48.70
27958;BME280;15295;42.658;23.374;2023-02-03T06:26:04;95049.94;;;6.30;48.36
27958;BME280;15295;42.658;23.374;2023-02-03T06:28:37;95055.75;;;6.29;48.24
27958;BME280;15295;42.658;23.374;2023-02-03T06:31:06;95056.16;;;6.31;48.25
27958;BME280;15295;42.658;23.374;2023-02-03T06:33:32;95035.38;;;6.19;47.80
27958;BME280;15295;42.658;23.374;2023-02-03T06:35:58;95055.28;;;6.27;47.77
27958;BME280;15295;42.658;23.374;2023-02-03T06:38:24;95076.94;;;6.42;47.69
27958;BME280;15295;42.658;23.374;2023-02-03T06:40:49;95030.66;;;6.16;47.43
27958;BME280;15295;42.658;23.374;2023-02-03T06:43:15;95041.00;;;6.30;47.23
27958;BME280;15295;42.658;23.374;2023-02-03T06:45:44;95032.72;;;6.22;46.77
27958;BME280;15295;42.658;23.374;2023-02-03T06:48:11;95057.88;;;6.39;46.65
27958;BME280;15295;42.658;23.374;2023-02-03T06:50:37;95076.47;;;6.59;46.72
27958;BME280;15295;42.658;23.374;2023-02-03T06:53:03;95044.28;;;6.39;46.16
27958;BME280;15295;42.658;23.374;2023-02-03T06:55:30;95069.91;;;6.60;46.11
27958;BME280;15295;42.658;23.374;2023-02-03T06:58:05;95079.47;;;6.73;45.77
27958;BME280;15295;42.658;23.374;2023-02-03T07:00:31;95065.38;;;6.68;45.33
27958;BME280;15295;42.658;23.374;2023-02-03T07:02:57;95050.13;;;6.60;45.49
27958;BME280;15295;42.658;23.374;2023-02-03T07:05:24;95069.69;;;6.69;45.52
27958;BME280;15295;42.658;23.374;2023-02-03T07:07:52;95036.53;;;6.60;45.20
27958;BME280;15295;42.658;23.374;2023-02-03T07:10:18;95044.22;;;6.77;45.27
27958;BME280;15295;42.658;23.374;2023-02-03T07:12:46;95024.03;;;6.55;45.39
27958;BME280;15295;42.658;23.374;2023-02-03T07:15:19;95028.09;;;6.65;45.50
27958;BME280;15295;42.658;23.374;2023-02-03T07:17:46;95043.13;;;6.81;45.42
27958;BME280;15295;42.658;23.374;2023-02-03T07:20:22;95024.38;;;6.73;45.15
27958;BME280;15295;42.658;23.374;2023-02-03T07:22:56;95031.34;;;6.74;45.08
27958;BME280;15295;42.658;23.374;2023-02-03T07:25:24;95030.78;;;6.84;45.08
27958;BME280;15295;42.658;23.374;2023-02-03T07:27:53;95017.63;;;6.86;44.56
27958;BME280;15295;42.658;23.374;2023-02-03T07:30:19;95068.97;;;7.17;44.32
27958;BME280;15295;42.658;23.374;2023-02-03T07:32:50;95036.25;;;6.87;44.22
27958;BME280;15295;42.658;23.374;2023-02-03T07:35:16;95045.13;;;7.07;43.96
27958;BME280;15295;42.658;23.374;2023-02-03T07:37:43;95033.75;;;7.24;43.76
27958;BME280;15295;42.658;23.374;2023-02-03T07:40:30;95050.66;;;7.63;43.24
27958;BME280;15295;42.658;23.374;2023-02-03T07:42:55;95086.63;;;8.05;42.36
27958;BME280;15295;42.658;23.374;2023-02-03T07:45:24;95095.78;;;8.23;42.30
27958;BME280;15295;42.658;23.374;2023-02-03T07:47:51;95096.06;;;8.74;41.95
27958;BME280;15295;42.658;23.374;2023-02-03T07:50:20;95078.00;;;8.96;40.69
27958;BME280;15295;42.658;23.374;2023-02-03T07:52:50;95055.47;;;9.02;39.61
27958;BME280;15295;42.658;23.374;2023-02-03T07:55:16;95061.22;;;9.34;39.56
27958;BME280;15295;42.658;23.374;2023-02-03T07:57:43;95058.97;;;9.47;38.69
27958;BME280;15295;42.658;23.374;2023-02-03T08:00:12;95056.66;;;9.52;38.67
27958;BME280;15295;42.658;23.374;2023-02-03T08:02:42;95059.31;;;9.42;38.48
27958;BME280;15295;42.658;23.374;2023-02-03T08:05:09;95060.81;;;9.32;38.57
27958;BME280;15295;42.658;23.374;2023-02-03T08:07:38;95080.81;;;9.50;38.48
27958;BME280;15295;42.658;23.374;2023-02-03T08:10:05;95094.91;;;9.59;38.43
27958;BME280;15295;42.658;23.374;2023-02-03T08:12:32;95085.59;;;9.64;38.43
27958;BME280;15295;42.658;23.374;2023-02-03T08:14:59;95068.50;;;9.70;37.92
27958;BME280;15295;42.658;23.374;2023-02-03T08:17:28;95059.19;;;9.82;37.88
27958;BME280;15295;42.658;23.374;2023-02-03T08:19:55;95067.09;;;9.94;37.58
27958;BME280;15295;42.658;23.374;2023-02-03T08:22:22;95072.63;;;10.08;37.85
27958;BME280;15295;42.658;23.374;2023-02-03T08:24:49;95111.50;;;10.45;37.60
27958;BME280;15295;42.658;23.374;2023-02-03T08:27:19;95111.84;;;10.44;37.25
27958;BME280;15295;42.658;23.374;2023-02-03T08:29:49;95081.09;;;10.61;36.59
27958;BME280;15295;42.658;23.374;2023-02-03T08:32:18;95086.19;;;10.66;36.21
27958;BME280;15295;42.658;23.374;2023-02-03T08:34:47;95119.50;;;10.93;36.31
27958;BME280;15295;42.658;23.374;2023-02-03T08:37:16;95088.19;;;10.76;36.01
27958;BME280;15295;42.658;23.374;2023-02-03T08:39:42;95116.81;;;11.21;35.83
27958;BME280;15295;42.658;23.374;2023-02-03T08:42:11;95112.16;;;11.32;35.35
27958;BME280;15295;42.658;23.374;2023-02-03T08:44:40;95121.94;;;11.43;34.97
27958;BME280;15295;42.658;23.374;2023-02-03T08:47:07;95128.63;;;11.56;34.63
27958;BME280;15295;42.658;23.374;2023-02-03T08:49:35;95137.25;;;11.83;34.81
27958;BME280;15295;42.658;23.374;2023-02-03T08:52:06;95113.75;;;12.00;34.32
27958;BME280;15295;42.658;23.374;2023-02-03T08:54:32;95096.97;;;11.73;33.73
27958;BME280;15295;42.658;23.374;2023-02-03T08:56:58;95141.53;;;11.91;33.63
27958;BME280;15295;42.658;23.374;2023-02-03T08:59:25;95150.13;;;12.28;33.81
27958;BME280;15295;42.658;23.374;2023-02-03T09:01:52;95116.13;;;11.84;33.57
27958;BME280;15295;42.658;23.374;2023-02-03T09:04:19;95107.47;;;11.39;34.30
27958;BME280;15295;42.658;23.374;2023-02-03T09:06:53;95130.94;;;11.47;34.17
27958;BME280;15295;42.658;23.374;2023-02-03T09:09:20;95129.38;;;11.57;34.49
27958;BME280;15295;42.658;23.374;2023-02-03T09:11:47;95107.88;;;11.45;35.02
27958;BME280;15295;42.658;23.374;2023-02-03T09:14:13;95147.78;;;11.60;35.00
27958;BME280;15295;42.658;23.374;2023-02-03T09:16:39;95096.13;;;11.20;34.53
27958;BME280;15295;42.658;23.374;2023-02-03T09:19:05;95096.50;;;11.15;34.74
27958;BME280;15295;42.658;23.374;2023-02-03T09:21:32;95112.13;;;11.18;35.51
27958;BME280;15295;42.658;23.374;2023-02-03T09:24:01;95111.38;;;11.49;35.01
27958;BME280;15295;42.658;23.374;2023-02-03T09:26:27;95123.16;;;11.88;34.38
27958;BME280;15295;42.658;23.374;2023-02-03T09:28:54;95101.25;;;11.74;34.67
27958;BME280;15295;42.658;23.374;2023-02-03T09:31:20;95080.94;;;11.82;33.93
27958;BME280;15295;42.658;23.374;2023-02-03T09:33:47;95091.09;;;11.75;34.15
27958;BME280;15295;42.658;23.374;2023-02-03T09:36:12;95084.84;;;11.88;34.13
27958;BME280;15295;42.658;23.374;2023-02-03T09:38:38;95117.66;;;12.16;34.17
27958;BME280;15295;42.658;23.374;2023-02-03T09:46:54;95106.66;;;12.37;33.15
27958;BME280;15295;42.658;23.374;2023-02-03T09:52:13;95097.59;;;12.55;33.00
27958;BME280;15295;42.658;23.374;2023-02-03T09:55:00;95070.13;;;12.72;32.14
27958;BME280;15295;42.658;23.374;2023-02-03T09:57:29;95123.78;;;12.70;31.81
27958;BME280;15295;42.658;23.374;2023-02-03T09:59:58;95093.78;;;12.17;31.39
27958;BME280;15295;42.658;23.374;2023-02-03T10:08:22;95101.13;;;12.52;31.51
27958;BME280;15295;42.658;23.374;2023-02-03T10:11:00;95113.31;;;12.40;31.79
27958;BME280;15295;42.658;23.374;2023-02-03T10:16:47;95082.31;;;12.61;31.70
27958;BME280;15295;42.658;23.374;2023-02-03T10:19:19;95084.69;;;12.45;30.98
27958;BME280;15295;42.658;23.374;2023-02-03T10:21:53;95080.88;;;12.21;30.96
27958;BME280;15295;42.658;23.374;2023-02-03T10:24:31;95083.63;;;12.07;31.53
27958;BME280;15295;42.658;23.374;2023-02-03T10:27:00;95086.38;;;11.61;32.13
27958;BME280;15295;42.658;23.374;2023-02-03T10:29:35;95096.53;;;11.57;32.44
27958;BME280;15295;42.658;23.374;2023-02-03T10:32:07;95089.53;;;11.74;32.92
27958;BME280;15295;42.658;23.374;2023-02-03T10:34:42;95056.28;;;11.61;32.19
27958;BME280;15295;42.658;23.374;2023-02-03T10:39:59;95092.56;;;11.09;32.16
27958;BME280;15295;42.658;23.374;2023-02-03T10:42:32;95101.50;;;10.88;32.58
27958;BME280;15295;42.658;23.374;2023-02-03T10:45:18;95054.84;;;10.35;32.68
27958;BME280;15295;42.658;23.374;2023-02-03T10:47:50;95093.13;;;10.46;32.98
27958;BME280;15295;42.658;23.374;2023-02-03T10:50:28;95087.97;;;10.27;33.66
27958;BME280;15295;42.658;23.374;2023-02-03T10:56:12;95071.47;;;9.51;35.10
27958;BME280;15295;42.658;23.374;2023-02-03T10:58:44;95105.91;;;9.70;34.53
27958;BME280;15295;42.658;23.374;2023-02-03T11:01:24;95079.34;;;9.60;34.64
27958;BME280;15295;42.658;23.374;2023-02-03T11:04:22;95102.41;;;9.69;34.92
27958;BME280;15295;42.658;23.374;2023-02-03T11:06:54;95113.31;;;9.66;33.47
27958;BME280;15295;42.658;23.374;2023-02-03T11:09:27;95063.44;;;9.21;32.54
27958;BME280;15295;42.658;23.374;2023-02-03T11:12:15;95105.72;;;9.45;32.46
27958;BME280;15295;42.658;23.374;2023-02-03T11:15:04;95094.59;;;9.24;33.14
27958;BME280;15295;42.658;23.374;2023-02-03T11:17:42;95073.31;;;8.96;33.77
27958;BME280;15295;42.658;23.374;2023-02-03T11:20:14;95105.75;;;9.49;33.45
27958;BME280;15295;42.658;23.374;2023-02-03T11:22:43;95068.06;;;9.65;32.96
27958;BME280;15295;42.658;23.374;2023-02-03T11:25:19;95057.53;;;9.67;32.73
27958;BME280;15295;42.658;23.374;2023-02-03T11:27:51;95052.06;;;9.60;31.94
27958;BME280;15295;42.658;23.374;2023-02-03T11:30:25;95054.06;;;9.66;31.74
27958;BME280;15295;42.658;23.374;2023-02-03T11:32:59;95039.69;;;9.80;31.57
27958;BME280;15295;42.658;23.374;2023-02-03T11:35:30;95035.53;;;10.00;30.91
27958;BME280;15295;42.658;23.374;2023-02-03T11:37:59;95053.06;;;9.99;31.11
27958;BME280;15295;42.658;23.374;2023-02-03T11:40:29;95074.03;;;10.53;31.02
27958;BME280;15295;42.658;23.374;2023-02-03T11:43:24;95030.78;;;10.86;30.89
27958;BME280;15295;42.658;23.374;2023-02-03T11:45:59;95004.28;;;11.33;30.31
27958;BME280;15295;42.658;23.374;2023-02-03T11:48:35;95040.63;;;11.72;29.35
27958;BME280;15295;42.658;23.374;2023-02-03T11:51:43;95046.13;;;11.54;29.79
27958;BME280;15295;42.658;23.374;2023-02-03T11:57:12;95043.38;;;11.47;29.48
27958;BME280;15295;42.658;23.374;2023-02-03T11:59:54;95026.94;;;11.16;30.00
27958;BME280;15295;42.658;23.374;2023-02-03T12:02:45;95017.56;;;11.31;28.99
27958;BME280;15295;42.658;23.374;2023-02-03T12:05:25;95063.72;;;11.68;27.90
27958;BME280;15295;42.658;23.374;2023-02-03T12:11:06;95059.69;;;12.35;27.39
27958;BME280;15295;42.658;23.374;2023-02-03T12:16:53;95036.97;;;12.35;26.07
27958;BME280;15295;42.658;23.374;2023-02-03T12:19:34;95057.94;;;12.77;26.35
27958;BME280;15295;42.658;23.374;2023-02-03T12:22:45;95070.22;;;12.48;26.10
27958;BME280;15295;42.658;23.374;2023-02-03T12:28:31;95062.91;;;11.53;27.05
27958;BME280;15295;42.658;23.374;2023-02-03T12:31:13;95014.78;;;10.96;26.49
27958;BME280;15295;42.658;23.374;2023-02-03T12:33:49;95028.09;;;11.04;27.08
27958;BME280;15295;42.658;23.374;2023-02-03T12:36:40;95022.63;;;11.36;26.91
27958;BME280;15295;42.658;23.374;2023-02-03T12:39:27;95043.75;;;11.88;26.71
27958;BME280;15295;42.658;23.374;2023-02-03T12:41:59;95002.69;;;11.78;26.74
27958;BME280;15295;42.658;23.374;2023-02-03T12:44:42;95008.19;;;11.67;26.64
27958;BME280;15295;42.658;23.374;2023-02-03T12:47:31;95021.88;;;11.46;27.17
27958;BME280;15295;42.658;23.374;2023-02-03T12:50:04;95025.75;;;11.27;28.00
27958;BME280;15295;42.658;23.374;2023-02-03T12:52:46;95019.91;;;11.22;27.82
27958;BME280;15295;42.658;23.374;2023-02-03T12:55:50;95032.41;;;11.23;28.06
27958;BME280;15295;42.658;23.374;2023-02-03T12:58:25;94953.47;;;11.04;28.19
27958;BME280;15295;42.658;23.374;2023-02-03T13:06:57;95015.53;;;12.12;27.91
27958;BME280;15295;42.658;23.374;2023-02-03T13:15:23;95020.53;;;12.28;28.30
27958;BME280;15295;42.658;23.374;2023-02-03T13:20:22;95019.69;;;12.49;28.36
27958;BME280;15295;42.658;23.374;2023-02-03T13:22:50;95016.09;;;12.62;28.41
27958;BME280;15295;42.658;23.374;2023-02-03T13:28:36;95019.72;;;12.42;28.27
27958;BME280;15295;42.658;23.374;2023-02-03T13:44:42;95011.19;;;12.18;29.01
27958;BME280;15295;42.658;23.374;2023-02-03T13:47:15;94993.63;;;12.02;28.74
27958;BME280;15295;42.658;23.374;2023-02-03T13:49:43;94963.16;;;11.86;29.05
27958;BME280;15295;42.658;23.374;2023-02-03T13:52:43;94997.19;;;11.81;29.17
27958;BME280;15295;42.658;23.374;2023-02-03T13:55:36;95035.16;;;11.54;29.96
27958;BME280;15295;42.658;23.374;2023-02-03T13:58:03;95026.53;;;11.07;30.32
27958;BME280;15295;42.658;23.374;2023-02-03T14:03:42;95030.66;;;10.37;31.62
27958;BME280;15295;42.658;23.374;2023-02-03T14:12:17;95032.78;;;9.96;33.12
27958;BME280;15295;42.658;23.374;2023-02-03T14:28:07;94986.16;;;10.33;32.66
27958;BME280;15295;42.658;23.374;2023-02-03T14:31:11;95007.59;;;10.31;32.39
27958;BME280;15295;42.658;23.374;2023-02-03T14:33:55;94978.19;;;9.96;32.61
27958;BME280;15295;42.658;23.374;2023-02-03T14:36:35;95014.03;;;9.91;32.87
27958;BME280;15295;42.658;23.374;2023-02-03T14:39:22;95014.78;;;9.85;33.39
27958;BME280;15295;42.658;23.374;2023-02-03T14:45:20;95015.75;;;9.52;33.82
27958;BME280;15295;42.658;23.374;2023-02-03T14:56:29;95013.75;;;8.98;33.60
27958;BME280;15295;42.658;23.374;2023-02-03T14:59:16;95002.75;;;8.88;33.82
27958;BME280;15295;42.658;23.374;2023-02-03T15:04:21;94996.69;;;8.65;33.15
27958;BME280;15295;42.658;23.374;2023-02-03T15:06:54;94990.47;;;8.64;33.33
27958;BME280;15295;42.658;23.374;2023-02-03T15:09:45;94990.88;;;8.66;33.59
27958;BME280;15295;42.658;23.374;2023-02-03T15:12:16;94978.41;;;8.62;33.39
27958;BME280;15295;42.658;23.374;2023-02-03T15:14:42;94970.97;;;8.59;33.83
27958;BME280;15295;42.658;23.374;2023-02-03T15:17:12;94925.19;;;8.34;33.56
27958;BME280;15295;42.658;23.374;2023-02-03T15:19:46;94961.19;;;8.54;33.54
27958;BME280;15295;42.658;23.374;2023-02-03T15:22:26;94916.56;;;8.25;33.79
27958;BME280;15295;42.658;23.374;2023-02-03T15:24:59;94936.91;;;8.38;34.07
27958;BME280;15295;42.658;23.374;2023-02-03T15:27:29;94949.81;;;8.45;34.13
27958;BME280;15295;42.658;23.374;2023-02-03T15:29:57;94939.94;;;8.30;34.52
27958;BME280;15295;42.658;23.374;2023-02-03T15:32:37;94936.50;;;8.36;34.53
27958;BME280;15295;42.658;23.374;2023-02-03T15:35:12;94936.06;;;8.31;34.72
27958;BME280;15295;42.658;23.374;2023-02-03T15:37:52;94916.84;;;8.17;34.46